Pendleton, OR

11:17 PM PDT on September 21, 2014 (GMT -0700)
Sun Ridge Estates | Change Station
CLOSE
Current Station
Personal Weather Station
Location: Pendleton, OR
Elevation: 1210 ft
Nearby Weather Stations

Elev 1210 ft 45.65 °N, 118.79 °W | Updated 53 seconds ago

Clear
Clear
61.4 °F
Feels Like 61.4 °F
N
1.0
Wind Variable Wind from NW
Gusts 1.0 mph

Today
High -- | Low -- °F
--% Chance of Precip.
Yesterday
High -- | Low -- °F
Precip. -- in
6:40 AM 6:54 PM
Waning Crescent, 4% visible
Pressure 29.81 in
Visibility 10.0 miles
Clouds Clear
Dew Point 46 °F
Humidity 57%
Rainfall 0.00 in
Snow Depth 0 in , 0 in , 1 in
UV 0 out of 12
Pollen 5.40 out of 12
Air Quality Not available.
Flu Activity Not available.
METAR KPDT 220553Z AUTO 35003KT 10SM CLR 17/07 A2986 RMK AO2 SLP095 T01720067 10311 20172 53003

More Conditions Fewer Conditions

Pressure 29.81 in
Visibility 10.0 miles
Clouds Clear
Dew Point 46 °F
Humidity 57%
Rainfall 0.00 in
Snow Depth 0 in , 0 in , 1 in
UV 0 out of 12
Pollen 5.40 out of 12
Air Quality Not available.
Flu Activity Not available.
METAR KPDT 220553Z AUTO 35003KT 10SM CLR 17/07 A2986 RMK AO2 SLP095 T01720067 10311 20172 53003

More Conditions Fewer Conditions

10-Day Weather Forecast

Almanac

Astronomy

Sep. 21, 2014 Rise Set
Actual Time 6:40 AM PDT 6:54 PM PDT
Civil Twilight 6:11 AM PDT 7:23 PM PDT
Nautical Twilight 5:36 AM PDT 7:58 PM PDT
Astronomical Twilight 5:00 AM PDT 8:34 PM PDT
Moon 4:13 AM PDT (9/21) 5:37 PM PDT (9/21)
Length of Visible Light 13h 12m
Length of Day
12h 13m
Tomorrow will be 3m 11s shorter.
Waning Crescent, 4% of the Moon is Illuminated
Sep 22
Waning Crescent
Sep 24
New
Oct 1
First Quarter
Oct 8
Full
Oct 15
Last Quarter

Yesterday's Extremes

State Highs State Lows

Community

WunderPhotos

Upload Photos

1,755,392 photos uploaded!

Nearby

Snow Depth

Station Depth Elevation
Diamond Lake 0 in 5315 ft
Blazed Alder 0 in 3650 ft
Lucky Strike 1 in 5050 ft
Schneider Meadows 0 in 5400 ft
Daly Lake 0 in 3600 ft

Earthquake Activity

City Distance Mag. Time & Date
No recent earthquake activity has been reported nearby.
Minimum magnitude displayed is 2.5.

Coastal Water Temperatures

Place Temperature
No Stations Reporting

Nearby Weather Stations